Time;durP1;ratioP1;P1;durP2;ratioP2;P2;SDS_P1;SDS_P2;PMS_P1;PMS_P2;Temp;Humidity;BMP_temperature;BMP_pressure;BME280_temperature;BME280_humidity;BME280_pressure;Samples;Min_cycle;Max_cycle;Signal;HPM_P1;HPM_P2
2021/01/09 00:02:15;;;;;;;27.65;14.30;;;0.60;99.90;;;;;;4963077;28;20038;-62
2021/01/09 00:04:41;;;;;;;26.58;14.18;;;0.60;99.90;;;;;;4985342;28;20030;-63
2021/01/09 00:07:08;;;;;;;27.40;12.60;;;0.60;99.90;;;;;;4987779;28;20041;-64
2021/01/09 00:09:34;;;;;;;23.48;12.48;;;0.60;99.90;;;;;;4988383;28;20114;-62
2021/01/09 00:12:00;;;;;;;28.00;13.63;;;0.60;99.90;;;;;;4987474;28;20092;-60
2021/01/09 00:14:26;;;;;;;25.52;13.88;;;0.50;99.90;;;;;;4986267;28;20607;-62
2021/01/09 00:16:51;;;;;;;28.83;15.10;;;0.50;99.90;;;;;;4986343;28;20057;-63
2021/01/09 00:19:17;;;;;;;29.02;14.27;;;0.50;99.90;;;;;;4959234;28;20111;-61
2021/01/09 00:21:43;;;;;;;29.60;14.82;;;0.60;99.90;;;;;;4984892;28;20031;-62
2021/01/09 00:24:10;;;;;;;26.98;14.02;;;0.50;99.90;;;;;;4987140;28;20532;-61
2021/01/09 00:26:36;;;;;;;26.17;14.55;;;0.50;99.90;;;;;;4987136;28;20041;-62
2021/01/09 00:29:03;;;;;;;27.77;14.85;;;0.50;99.90;;;;;;4986411;28;20030;-60
2021/01/09 00:31:29;;;;;;;29.50;15.68;;;0.50;99.90;;;;;;4985282;28;20073;-62
2021/01/09 00:33:55;;;;;;;37.65;17.58;;;0.50;99.90;;;;;;4986556;28;20054;-62
2021/01/09 00:36:20;;;;;;;31.73;16.27;;;0.50;99.90;;;;;;4985294;28;20492;-61
2021/01/09 00:38:46;;;;;;;34.95;17.08;;;0.50;99.90;;;;;;4983979;28;20022;-61
2021/01/09 00:41:12;;;;;;;34.72;16.13;;;0.60;99.90;;;;;;4984929;28;20026;-61
2021/01/09 00:43:38;;;;;;;33.70;16.88;;;0.60;99.90;;;;;;4989115;28;20053;-64
2021/01/09 00:46:03;;;;;;;32.60;16.10;;;0.60;99.90;;;;;;4986139;28;20027;-61
2021/01/09 00:48:29;;;;;;;32.67;16.73;;;0.70;99.90;;;;;;4986924;28;20042;-60
2021/01/09 00:50:55;;;;;;;33.47;15.98;;;0.70;99.90;;;;;;4988061;28;20018;-61
2021/01/09 00:53:20;;;;;;;33.28;17.17;;;0.70;99.90;;;;;;5001546;28;20184;-60
2021/01/09 00:55:46;;;;;;;33.22;17.23;;;0.80;99.90;;;;;;4985069;28;20030;-62
2021/01/09 00:58:12;;;;;;;31.13;17.20;;;0.80;99.90;;;;;;4984441;28;20030;-63
2021/01/09 01:00:38;;;;;;;29.98;16.20;;;0.80;99.90;;;;;;4990394;28;20026;-61
2021/01/09 01:03:04;;;;;;;30.40;16.55;;;0.80;99.90;;;;;;4961839;28;20096;-60
2021/01/09 01:05:30;;;;;;;33.55;17.13;;;0.90;99.90;;;;;;4983295;28;20027;-62
2021/01/09 01:07:55;;;;;;;32.70;18.38;;;0.90;99.90;;;;;;4985589;28;20033;-63
2021/01/09 01:10:21;;;;;;;31.00;16.42;;;0.90;99.90;;;;;;4986593;28;20105;-64
2021/01/09 01:12:47;;;;;;;32.10;17.88;;;0.90;99.90;;;;;;4982933;28;20076;-60
2021/01/09 01:15:13;;;;;;;34.13;17.13;;;0.90;99.90;;;;;;4985857;28;20484;-60
2021/01/09 01:17:38;;;;;;;35.10;17.45;;;0.90;99.90;;;;;;4985578;28;20607;-64
2021/01/09 01:20:04;;;;;;;32.90;16.70;;;0.90;99.90;;;;;;4957141;28;20042;-61
2021/01/09 01:22:30;;;;;;;33.08;16.08;;;1.00;99.90;;;;;;4985756;28;20098;-62
2021/01/09 01:24:56;;;;;;;34.15;15.85;;;0.90;99.90;;;;;;4984971;28;20038;-59
2021/01/09 01:27:21;;;;;;;34.30;17.45;;;1.00;99.90;;;;;;4984690;28;20113;-62
2021/01/09 01:29:47;;;;;;;29.85;16.33;;;1.00;99.90;;;;;;4968413;28;20118;-59
2021/01/09 01:32:12;;;;;;;32.63;16.70;;;1.00;99.90;;;;;;4981724;28;20113;-59
2021/01/09 01:34:38;;;;;;;26.90;14.02;;;1.00;99.90;;;;;;4985263;28;20057;-61
2021/01/09 01:37:03;;;;;;;28.98;14.73;;;1.10;99.90;;;;;;4984940;28;20022;-59
2021/01/09 01:39:29;;;;;;;27.13;15.23;;;1.10;99.90;;;;;;4986045;28;20030;-61
2021/01/09 01:41:56;;;;;;;35.75;15.63;;;1.10;99.90;;;;;;4984045;28;20065;-58
2021/01/09 01:44:21;;;;;;;28.42;15.93;;;1.00;99.90;;;;;;4984556;28;20026;-59
2021/01/09 01:46:47;;;;;;;28.98;16.30;;;1.00;99.90;;;;;;4981684;28;20509;-59
2021/01/09 01:49:13;;;;;;;34.28;18.05;;;1.00;99.90;;;;;;4985247;28;20026;-60
2021/01/09 01:51:40;;;;;;;32.08;17.55;;;1.00;99.90;;;;;;4985107;28;20034;-61
2021/01/09 01:54:06;;;;;;;33.50;17.92;;;1.00;99.90;;;;;;4982232;28;20620;-61
2021/01/09 01:56:32;;;;;;;34.90;17.77;;;1.00;99.90;;;;;;5000688;28;20061;-61
2021/01/09 01:58:57;;;;;;;36.80;17.63;;;1.00;99.90;;;;;;4984303;28;20535;-59
2021/01/09 02:01:24;;;;;;;36.60;19.63;;;1.00;99.90;;;;;;4956201;28;20047;-63
2021/01/09 02:03:49;;;;;;;36.65;18.83;;;1.00;99.90;;;;;;4984887;28;20133;-60
2021/01/09 02:06:20;;;;;;;40.88;19.70;;;1.00;99.90;;;;;;4982853;28;20129;-61
2021/01/09 02:09:14;;;;;;;37.25;19.52;;;1.00;99.90;;;;;;4984729;28;20041;-61
2021/01/09 02:11:46;;;;;;;191.15;23.20;;;1.00;99.90;;;;;;4981000;28;20572;-60
2021/01/09 02:14:19;;;;;;;151.73;20.23;;;1.00;99.90;;;;;;4985420;28;20113;-62
2021/01/09 02:16:45;;;;;;;230.07;21.60;;;0.90;99.90;;;;;;4985622;28;20062;-60
2021/01/09 02:19:13;;;;;;;344.45;31.38;;;0.90;99.90;;;;;;4998984;28;20081;-60
2021/01/09 02:21:43;;;;;;;209.32;24.13;;;0.80;99.90;;;;;;4962534;28;20050;-60
2021/01/09 02:24:18;;;;;;;69.90;19.45;;;0.80;99.90;;;;;;4985051;28;20019;-61
2021/01/09 02:26:48;;;;;;;48.50;17.92;;;0.80;99.90;;;;;;4983879;28;20027;-63
2021/01/09 02:29:14;;;;;;;34.28;18.15;;;0.80;99.90;;;;;;4983834;28;20048;-60
2021/01/09 02:32:00;;;;;;;37.75;18.50;;;0.80;99.90;;;;;;4987081;28;20053;-62
2021/01/09 02:34:48;;;;;;;35.15;18.40;;;0.80;99.90;;;;;;4985200;28;20054;-59
2021/01/09 02:37:14;;;;;;;33.67;17.65;;;0.90;99.90;;;;;;4983744;28;20042;-59
2021/01/09 02:39:40;;;;;;;36.90;17.75;;;0.80;99.90;;;;;;4999542;28;20057;-64
2021/01/09 02:42:07;;;;;;;41.05;19.45;;;0.80;99.90;;;;;;4981997;28;20023;-59
2021/01/09 02:44:34;;;;;;;56.55;22.42;;;0.90;99.90;;;;;;4985813;28;20015;-60
2021/01/09 02:46:59;;;;;;;50.65;20.75;;;0.90;99.90;;;;;;4986441;28;20022;-62
2021/01/09 02:49:25;;;;;;;45.88;20.52;;;0.90;99.90;;;;;;4985151;28;20026;-62
2021/01/09 02:51:51;;;;;;;43.13;19.00;;;1.00;99.90;;;;;;4986623;28;20046;-62
2021/01/09 02:54:16;;;;;;;42.35;19.92;;;1.00;99.90;;;;;;4985146;28;20485;-63
2021/01/09 02:56:42;;;;;;;45.50;20.65;;;0.90;99.90;;;;;;4982669;28;20496;-61
2021/01/09 02:59:07;;;;;;;32.53;17.20;;;0.90;99.90;;;;;;4985105;28;20119;-62
2021/01/09 03:01:33;;;;;;;79.10;19.13;;;0.90;99.90;;;;;;4960742;28;20034;-62
2021/01/09 03:03:59;;;;;;;37.20;18.80;;;0.90;99.90;;;;;;5001375;28;20034;-62
2021/01/09 03:06:25;;;;;;;44.70;16.02;;;0.90;99.90;;;;;;4988199;28;20030;-63
2021/01/09 03:08:52;;;;;;;35.08;17.42;;;0.80;99.90;;;;;;4989917;28;20030;-63
2021/01/09 03:11:18;;;;;;;85.07;18.05;;;0.80;99.90;;;;;;4984820;28;20026;-61
2021/01/09 03:13:44;;;;;;;76.78;19.48;;;0.80;99.90;;;;;;5004466;28;20511;-62
2021/01/09 03:16:10;;;;;;;49.75;19.92;;;0.80;99.90;;;;;;4987750;28;20318;-62
2021/01/09 03:18:35;;;;;;;34.97;18.45;;;0.70;99.90;;;;;;4986588;28;20034;-62
2021/01/09 03:21:02;;;;;;;41.15;17.80;;;0.80;99.90;;;;;;4974880;28;20065;-61
2021/01/09 03:23:27;;;;;;;38.47;17.73;;;0.80;99.90;;;;;;4989358;28;20027;-62
2021/01/09 03:25:53;;;;;;;47.75;19.48;;;0.80;99.90;;;;;;4984043;28;20034;-63
2021/01/09 03:28:19;;;;;;;58.28;18.95;;;0.80;99.90;;;;;;4985776;28;20019;-63
2021/01/09 03:30:44;;;;;;;50.03;20.77;;;0.80;99.90;;;;;;4997800;28;20030;-63
2021/01/09 03:33:10;;;;;;;38.28;18.40;;;0.80;99.90;;;;;;4988676;28;20022;-60
2021/01/09 03:35:36;;;;;;;34.85;17.65;;;0.80;99.90;;;;;;4987711;28;20101;-62
2021/01/09 03:38:01;;;;;;;42.53;19.73;;;0.80;99.90;;;;;;4986347;28;20022;-62
2021/01/09 03:40:27;;;;;;;39.15;18.65;;;0.80;99.90;;;;;;4988718;28;20404;-61
2021/01/09 03:42:53;;;;;;;40.88;18.35;;;0.90;99.90;;;;;;4983861;28;20419;-61
2021/01/09 03:45:19;;;;;;;40.72;19.73;;;0.90;99.90;;;;;;4987337;28;20034;-63
2021/01/09 03:47:45;;;;;;;35.53;17.70;;;0.90;99.90;;;;;;4942442;28;20105;-59
2021/01/09 03:50:10;;;;;;;58.15;18.08;;;0.90;99.90;;;;;;4994960;28;20028;-62
2021/01/09 03:52:36;;;;;;;43.55;20.73;;;0.90;99.90;;;;;;4983504;28;20033;-59
2021/01/09 03:55:01;;;;;;;42.97;19.17;;;0.90;99.90;;;;;;5002303;28;20572;-64
2021/01/09 03:57:27;;;;;;;76.20;19.55;;;0.90;99.90;;;;;;4999935;28;20034;-59
2021/01/09 03:59:53;;;;;;;80.13;19.95;;;0.90;99.90;;;;;;4988825;28;20525;-63
2021/01/09 04:02:18;;;;;;;70.15;19.58;;;0.90;99.90;;;;;;4959921;28;20038;-60
2021/01/09 04:04:44;;;;;;;70.18;17.95;;;0.90;99.90;;;;;;4985724;28;20109;-64
2021/01/09 04:07:10;;;;;;;58.33;20.55;;;0.90;99.90;;;;;;4987492;28;20097;-62
2021/01/09 04:09:35;;;;;;;50.10;18.33;;;0.90;99.90;;;;;;4988024;28;20700;-62
2021/01/09 04:12:01;;;;;;;44.92;18.40;;;0.90;99.90;;;;;;4981676;28;20391;-63
2021/01/09 04:14:27;;;;;;;72.05;20.55;;;0.80;99.90;;;;;;4985163;28;20576;-62
2021/01/09 04:16:53;;;;;;;73.68;19.38;;;0.80;99.90;;;;;;4988551;28;20110;-62
2021/01/09 04:19:18;;;;;;;49.75;19.10;;;0.80;99.90;;;;;;5000974;28;20522;-61
2021/01/09 04:21:51;;;;;;;57.05;18.63;;;0.80;99.90;;;;;;4972810;28;20045;-61
2021/01/09 04:24:18;;;;;;;38.78;16.92;;;0.80;99.90;;;;;;4980567;28;20496;-62
2021/01/09 04:26:44;;;;;;;49.10;19.20;;;0.80;99.90;;;;;;5001945;28;20134;-64
2021/01/09 04:29:09;;;;;;;53.90;16.88;;;0.90;99.90;;;;;;4987916;28;20101;-61
2021/01/09 04:31:35;;;;;;;70.90;19.88;;;0.90;99.90;;;;;;4986482;28;20069;-59
2021/01/09 04:34:01;;;;;;;83.80;18.02;;;0.80;99.90;;;;;;5001309;28;20556;-62
2021/01/09 04:36:27;;;;;;;127.32;20.27;;;0.80;99.90;;;;;;4986389;28;20011;-60
2021/01/09 04:38:52;;;;;;;110.00;19.02;;;0.80;99.90;;;;;;4985192;28;20632;-62
2021/01/09 04:41:20;;;;;;;108.53;20.80;;;0.80;99.90;;;;;;4977049;28;20007;-63
2021/01/09 04:43:48;;;;;;;81.25;20.13;;;0.80;99.90;;;;;;4977459;28;20026;-62
2021/01/09 04:46:16;;;;;;;64.05;17.58;;;0.80;99.90;;;;;;4984283;28;20089;-61
2021/01/09 04:48:42;;;;;;;62.90;17.20;;;0.80;99.90;;;;;;5002948;28;20674;-60
2021/01/09 04:51:09;;;;;;;45.30;17.45;;;0.80;99.90;;;;;;4982137;28;20057;-60
2021/01/09 04:53:35;;;;;;;48.17;19.02;;;0.90;99.90;;;;;;4984505;28;20779;-64
2021/01/09 04:56:02;;;;;;;41.55;17.65;;;0.90;99.90;;;;;;4984492;28;20041;-63
2021/01/09 04:58:30;;;;;;;46.38;17.58;;;0.90;99.90;;;;;;4983092;28;20086;-62
2021/01/09 05:00:56;;;;;;;38.53;17.20;;;0.90;99.90;;;;;;4980683;28;20034;-62
2021/01/09 05:03:22;;;;;;;37.97;16.83;;;0.90;99.90;;;;;;4963202;28;20054;-62
2021/01/09 05:05:48;;;;;;;45.03;18.65;;;0.90;99.90;;;;;;4984386;28;20057;-62
2021/01/09 05:08:14;;;;;;;42.83;18.73;;;0.80;99.90;;;;;;4986377;28;20490;-62
2021/01/09 05:10:40;;;;;;;46.88;18.27;;;0.90;99.90;;;;;;4976730;28;20035;-62
2021/01/09 05:13:05;;;;;;;34.75;16.83;;;0.80;99.90;;;;;;4980803;28;20670;-61
2021/01/09 05:15:53;;;;;;;42.28;18.83;;;0.80;99.90;;;;;;4985209;28;20034;-63
2021/01/09 05:18:19;;;;;;;36.67;16.92;;;0.90;99.90;;;;;;4981173;28;20783;-61
2021/01/09 05:20:44;;;;;;;43.30;17.50;;;0.90;99.90;;;;;;4985381;28;20041;-61
2021/01/09 05:23:11;;;;;;;37.88;16.50;;;0.90;99.90;;;;;;4974910;28;20039;-62
2021/01/09 05:25:37;;;;;;;41.65;17.35;;;0.90;99.90;;;;;;4979077;28;20092;-56
2021/01/09 05:28:06;;;;;;;40.15;17.92;;;0.90;99.90;;;;;;4978870;28;20034;-59
2021/01/09 05:30:32;;;;;;;38.88;16.92;;;0.90;99.90;;;;;;4985108;28;20073;-63
2021/01/09 05:33:00;;;;;;;40.53;17.17;;;0.90;99.90;;;;;;4980863;28;20061;-62
2021/01/09 05:35:27;;;;;;;40.35;17.75;;;0.90;99.90;;;;;;4979314;28;20027;-61
2021/01/09 05:37:52;;;;;;;43.28;18.83;;;0.90;99.90;;;;;;4969891;28;20046;-61
2021/01/09 05:40:18;;;;;;;39.50;17.60;;;0.90;99.90;;;;;;4982267;28;20122;-61
2021/01/09 05:42:44;;;;;;;48.53;19.58;;;0.90;99.90;;;;;;4984756;28;20034;-59
2021/01/09 05:45:11;;;;;;;54.35;19.17;;;0.90;99.90;;;;;;4982141;28;20084;-58
2021/01/09 05:47:38;;;;;;;43.95;19.17;;;0.90;99.90;;;;;;4967495;28;20083;-60
2021/01/09 05:50:06;;;;;;;46.20;19.10;;;0.80;99.90;;;;;;4978315;28;20019;-59
2021/01/09 05:52:38;;;;;;;47.65;20.00;;;0.80;99.90;;;;;;4979566;28;20031;-60
2021/01/09 05:55:05;;;;;;;46.90;20.10;;;0.80;99.90;;;;;;4979650;28;20025;-61
2021/01/09 05:57:32;;;;;;;44.92;18.70;;;0.90;99.90;;;;;;4982293;28;20022;-63
2021/01/09 06:00:01;;;;;;;44.58;18.23;;;0.80;99.90;;;;;;4973856;28;20035;-62
2021/01/09 06:02:28;;;;;;;39.22;18.02;;;0.80;99.90;;;;;;4965390;28;20050;-61
2021/01/09 06:04:58;;;;;;;40.35;18.85;;;0.70;99.90;;;;;;4981072;28;20069;-62
2021/01/09 06:07:33;;;;;;;81.93;20.58;;;0.80;99.90;;;;;;4973674;28;20172;-63
2021/01/09 06:10:11;;;;;;;44.08;19.33;;;0.80;99.90;;;;;;4972647;28;20026;-63
2021/01/09 06:12:58;;;;;;;49.65;19.75;;;0.70;99.90;;;;;;4984310;28;20034;-62
2021/01/09 06:15:24;;;;;;;52.03;19.70;;;0.70;99.90;;;;;;4973979;28;20027;-59
2021/01/09 06:17:51;;;;;;;47.30;18.08;;;0.70;99.90;;;;;;4965132;28;20022;-61
2021/01/09 06:20:17;;;;;;;48.72;19.48;;;0.70;99.90;;;;;;4971742;28;20025;-58
2021/01/09 06:22:43;;;;;;;59.85;20.20;;;0.70;99.90;;;;;;4959170;28;20118;-60
2021/01/09 06:25:11;;;;;;;116.90;20.23;;;0.60;99.90;;;;;;4975560;28;21639;-60
2021/01/09 06:27:39;;;;;;;67.35;19.55;;;0.60;99.90;;;;;;4977433;28;20218;-58
2021/01/09 06:30:10;;;;;;;82.22;19.13;;;0.70;99.90;;;;;;4973631;28;20049;-59
2021/01/09 06:32:40;;;;;;;124.07;21.23;;;0.70;99.90;;;;;;4972089;28;20034;-63
2021/01/09 06:35:08;;;;;;;142.23;21.50;;;0.70;99.90;;;;;;4984913;28;20038;-62
2021/01/09 06:37:35;;;;;;;66.53;19.50;;;0.60;99.90;;;;;;4982256;28;20054;-61
2021/01/09 06:40:02;;;;;;;66.00;18.98;;;0.70;99.90;;;;;;4973710;28;20038;-60
2021/01/09 06:42:29;;;;;;;56.72;19.98;;;0.60;99.90;;;;;;4983248;28;20034;-64
2021/01/09 06:44:55;;;;;;;50.60;18.48;;;0.70;99.90;;;;;;4969478;28;20015;-61
2021/01/09 06:47:25;;;;;;;56.65;19.77;;;0.60;99.90;;;;;;4988001;28;20025;-61
2021/01/09 06:49:52;;;;;;;81.40;30.88;;;0.60;99.90;;;;;;4984388;28;20042;-63
2021/01/09 06:52:17;;;;;;;58.00;23.23;;;0.60;99.90;;;;;;4977919;28;20057;-61
2021/01/09 06:54:47;;;;;;;44.58;19.13;;;0.50;99.90;;;;;;4987855;28;20031;-59
2021/01/09 06:57:17;;;;;;;68.65;21.15;;;0.50;99.90;;;;;;4989167;28;20412;-59
2021/01/09 06:59:44;;;;;;;78.75;20.85;;;0.50;99.90;;;;;;4986258;28;20652;-59
2021/01/09 07:02:13;;;;;;;110.35;54.70;;;0.50;99.90;;;;;;4971484;28;20077;-61
2021/01/09 07:05:00;;;;;;;76.43;32.22;;;0.50;99.90;;;;;;4978235;28;20096;-59
2021/01/09 07:07:37;;;;;;;63.58;22.25;;;0.50;99.90;;;;;;4985182;28;20033;-61
2021/01/09 07:10:05;;;;;;;55.38;19.80;;;0.50;99.90;;;;;;4983023;28;20092;-62
2021/01/09 07:12:31;;;;;;;57.28;21.17;;;0.50;99.90;;;;;;4979911;28;20611;-62
2021/01/09 07:15:10;;;;;;;53.78;21.85;;;0.50;99.90;;;;;;4981870;28;20039;-62
2021/01/09 07:17:39;;;;;;;57.05;19.45;;;0.50;99.90;;;;;;4975951;28;20038;-60
2021/01/09 07:20:10;;;;;;;58.22;22.33;;;0.50;99.90;;;;;;4978484;28;20058;-59
2021/01/09 07:22:41;;;;;;;62.22;23.42;;;0.50;99.90;;;;;;4983174;28;20089;-61
2021/01/09 07:25:09;;;;;;;59.30;22.83;;;0.50;99.90;;;;;;4968009;28;20022;-59
2021/01/09 07:27:45;;;;;;;63.72;22.52;;;0.50;99.90;;;;;;4976912;28;20089;-59
2021/01/09 07:30:13;;;;;;;91.90;21.73;;;0.60;99.90;;;;;;4988677;28;20069;-60
2021/01/09 07:32:58;;;;;;;69.50;23.73;;;0.60;99.90;;;;;;4981126;28;20034;-62
2021/01/09 07:35:32;;;;;;;100.43;26.42;;;0.60;99.90;;;;;;4987488;28;20033;-58
2021/01/09 07:38:02;;;;;;;70.57;23.10;;;0.70;99.90;;;;;;4986519;28;20603;-60
2021/01/09 07:40:33;;;;;;;99.75;22.92;;;0.70;99.90;;;;;;4988263;28;20062;-62
2021/01/09 07:43:00;;;;;;;86.68;22.08;;;0.70;99.90;;;;;;4986492;28;20048;-62
2021/01/09 07:45:33;;;;;;;61.72;22.15;;;0.70;99.90;;;;;;4987705;28;20440;-63
2021/01/09 07:47:58;;;;;;;64.38;21.92;;;0.80;99.90;;;;;;4987025;28;20052;-59
2021/01/09 07:50:24;;;;;;;59.88;21.33;;;0.80;99.90;;;;;;4986252;28;20042;-62
2021/01/09 07:53:05;;;;;;;57.85;21.23;;;0.90;99.90;;;;;;4987850;28;20455;-65
2021/01/09 07:55:46;;;;;;;51.60;19.40;;;0.90;99.90;;;;;;4986032;28;20037;-64
2021/01/09 07:58:12;;;;;;;47.40;20.33;;;1.00;99.90;;;;;;4988047;28;20113;-62
2021/01/09 08:00:44;;;;;;;42.15;19.35;;;1.10;99.90;;;;;;4983050;28;20697;-64
2021/01/09 08:03:10;;;;;;;44.47;18.20;;;1.00;99.90;;;;;;4970466;28;20093;-62
2021/01/09 08:05:37;;;;;;;49.35;19.15;;;1.00;99.90;;;;;;4971858;28;20022;-63
2021/01/09 08:08:04;;;;;;;49.97;19.95;;;1.00;99.90;;;;;;4988412;28;20109;-64
2021/01/09 08:10:34;;;;;;;50.78;21.40;;;1.00;99.90;;;;;;4987133;28;20042;-63
2021/01/09 08:13:04;;;;;;;48.72;21.35;;;1.10;99.90;;;;;;4981107;28;20053;-64
2021/01/09 08:15:31;;;;;;;48.55;20.55;;;1.10;99.90;;;;;;4976597;28;20500;-63
2021/01/09 08:18:03;;;;;;;64.60;20.60;;;1.20;99.90;;;;;;4985855;28;20105;-64
2021/01/09 08:20:29;;;;;;;57.85;21.42;;;1.10;99.90;;;;;;4977332;28;20483;-62
2021/01/09 08:23:00;;;;;;;54.38;21.10;;;1.20;99.90;;;;;;4983270;28;20038;-64
2021/01/09 08:25:28;;;;;;;41.97;19.02;;;1.20;99.90;;;;;;4970818;28;20432;-63
2021/01/09 08:27:56;;;;;;;43.10;19.70;;;1.10;99.90;;;;;;4986489;28;20023;-60
2021/01/09 08:30:32;;;;;;;46.20;19.88;;;1.20;99.90;;;;;;4986707;28;20026;-60
2021/01/09 08:33:16;;;;;;;51.28;19.15;;;1.20;99.90;;;;;;4976412;28;20089;-61
2021/01/09 08:35:50;;;;;;;47.70;18.75;;;1.20;99.90;;;;;;4988627;28;20030;-62
2021/01/09 08:38:17;;;;;;;48.45;20.88;;;1.20;99.90;;;;;;4984791;28;20054;-59
2021/01/09 08:40:42;;;;;;;56.40;20.75;;;1.20;99.90;;;;;;4980036;28;20041;-60
2021/01/09 08:43:10;;;;;;;50.55;19.60;;;1.30;99.90;;;;;;4984687;28;20031;-60
2021/01/09 08:45:49;;;;;;;50.00;20.90;;;1.40;99.90;;;;;;4979557;28;20046;-61
2021/01/09 08:48:21;;;;;;;47.53;19.77;;;1.50;99.90;;;;;;4985444;28;20105;-61
2021/01/09 08:51:10;;;;;;;49.67;19.67;;;1.50;99.90;;;;;;4984405;28;20025;-58
2021/01/09 08:53:51;;;;;;;47.92;20.25;;;1.50;99.90;;;;;;4978988;28;20027;-59
2021/01/09 08:56:22;;;;;;;47.03;19.95;;;1.50;99.90;;;;;;4980079;28;20036;-62
2021/01/09 08:58:48;;;;;;;74.28;25.83;;;1.60;99.90;;;;;;4978498;28;20041;-62
2021/01/09 09:01:18;;;;;;;62.67;21.13;;;1.60;99.90;;;;;;4979735;28;20550;-63
2021/01/09 09:03:48;;;;;;;58.15;23.65;;;1.50;99.90;;;;;;4970193;28;20058;-60
2021/01/09 09:06:16;;;;;;;54.15;20.70;;;1.60;99.90;;;;;;4982889;28;20038;-61
2021/01/09 09:08:43;;;;;;;37.42;17.67;;;1.60;99.90;;;;;;4985502;28;20045;-62
2021/01/09 09:11:10;;;;;;;46.30;19.90;;;1.70;99.90;;;;;;4984328;28;20069;-62
2021/01/09 09:13:36;;;;;;;48.45;21.02;;;1.60;99.90;;;;;;4985649;28;20018;-60
2021/01/09 09:16:15;;;;;;;52.35;21.90;;;1.60;99.90;;;;;;4980579;28;20019;-61
2021/01/09 09:18:41;;;;;;;51.03;19.48;;;1.60;99.90;;;;;;4984348;28;20034;-60
2021/01/09 09:21:08;;;;;;;59.13;24.25;;;1.70;99.90;;;;;;4985545;28;20031;-60
2021/01/09 09:23:35;;;;;;;67.13;22.55;;;1.70;99.90;;;;;;4987403;28;20484;-59
2021/01/09 09:26:09;;;;;;;86.50;22.40;;;1.80;99.90;;;;;;4973158;28;20041;-63
2021/01/09 09:28:44;;;;;;;;;;;1.90;99.90;;;;;;4985022;28;20030;-60
2021/01/09 09:31:17;;;;;;;432.50;106.80;;;1.90;99.90;;;;;;4980519;28;19909;-56
2021/01/09 09:34:01;;;;;;;210.13;70.10;;;1.80;99.90;;;;;;4982920;28;20596;-61
2021/01/09 09:36:28;;;;;;;141.13;55.22;;;1.70;99.90;;;;;;4985841;28;20125;-61
2021/01/09 09:38:54;;;;;;;101.85;30.52;;;1.60;99.90;;;;;;4987307;28;20062;-60
2021/01/09 09:41:21;;;;;;;137.02;27.42;;;1.60;99.90;;;;;;5000785;28;20096;-61
2021/01/09 09:43:59;;;;;;;99.20;23.23;;;1.60;99.90;;;;;;4983484;28;20037;-62
2021/01/09 09:46:26;;;;;;;94.90;22.58;;;1.60;99.90;;;;;;4982364;28;20030;-63
2021/01/09 09:48:52;;;;;;;64.43;22.77;;;1.70;99.90;;;;;;5000392;28;20116;-63
2021/01/09 09:51:18;;;;;;;70.65;20.63;;;1.90;99.90;;;;;;4984806;28;20030;-59
2021/01/09 09:53:53;;;;;;;126.50;22.38;;;2.00;99.90;;;;;;4985567;28;20038;-59
2021/01/09 09:56:19;;;;;;;64.05;20.48;;;2.10;99.90;;;;;;4978863;28;20026;-62
2021/01/09 09:58:46;;;;;;;77.43;22.20;;;2.20;99.90;;;;;;4983227;28;20045;-63
2021/01/09 10:01:20;;;;;;;92.18;22.60;;;2.30;99.90;;;;;;4982208;28;20034;-64
2021/01/09 10:03:47;;;;;;;75.30;23.15;;;2.20;99.90;;;;;;4964205;28;20508;-61
2021/01/09 10:06:13;;;;;;;102.57;23.25;;;2.10;99.90;;;;;;4984966;28;20049;-63
2021/01/09 10:08:38;;;;;;;77.82;22.77;;;2.10;99.90;;;;;;4985986;28;20404;-61
2021/01/09 10:11:04;;;;;;;79.70;23.77;;;2.10;99.90;;;;;;4984480;28;20030;-58
2021/01/09 10:13:30;;;;;;;94.20;24.42;;;2.20;99.90;;;;;;4985819;28;20056;-62
2021/01/09 10:15:57;;;;;;;67.00;23.15;;;2.20;99.90;;;;;;4986493;28;20105;-63
2021/01/09 10:18:24;;;;;;;62.10;20.80;;;2.30;99.90;;;;;;4980081;28;20018;-62
2021/01/09 10:20:50;;;;;;;55.70;22.20;;;2.20;99.90;;;;;;4978483;28;20109;-62
2021/01/09 10:23:16;;;;;;;73.07;22.30;;;2.10;99.90;;;;;;4982424;28;20034;-61
2021/01/09 10:25:41;;;;;;;57.60;23.60;;;2.10;99.90;;;;;;4943094;28;20042;-62
2021/01/09 10:28:07;;;;;;;63.33;24.60;;;2.10;99.90;;;;;;4985569;28;20523;-63
2021/01/09 10:30:32;;;;;;;82.15;30.83;;;2.20;99.90;;;;;;4973512;28;20019;-62
2021/01/09 10:32:58;;;;;;;63.35;24.83;;;2.30;99.90;;;;;;4981159;28;20506;-62
2021/01/09 10:35:24;;;;;;;51.88;22.42;;;2.30;99.90;;;;;;4984517;28;20077;-64
2021/01/09 10:37:49;;;;;;;58.92;23.02;;;2.30;99.90;;;;;;4984772;28;20038;-63
2021/01/09 10:40:15;;;;;;;58.20;23.55;;;2.30;99.90;;;;;;4970648;28;20042;-60
2021/01/09 10:42:41;;;;;;;51.53;23.23;;;2.40;99.90;;;;;;4982799;28;20030;-59
2021/01/09 10:45:07;;;;;;;47.83;21.67;;;2.60;99.90;;;;;;4979418;28;20030;-61
2021/01/09 10:47:32;;;;;;;55.05;22.45;;;2.60;99.90;;;;;;4981568;28;20042;-57
2021/01/09 10:49:58;;;;;;;49.58;21.58;;;2.70;99.90;;;;;;4982876;28;20034;-57
2021/01/09 10:52:24;;;;;;;53.08;21.55;;;2.80;99.90;;;;;;4977270;28;20137;-60
2021/01/09 10:54:50;;;;;;;51.28;22.30;;;2.80;99.90;;;;;;4982544;28;20085;-57
2021/01/09 10:57:16;;;;;;;47.28;21.52;;;2.70;99.90;;;;;;4986453;28;20050;-60
2021/01/09 10:59:41;;;;;;;46.95;19.77;;;2.80;99.90;;;;;;4983156;28;20026;-60
2021/01/09 11:02:08;;;;;;;49.70;22.10;;;2.90;99.90;;;;;;4984362;28;20481;-62
2021/01/09 11:04:33;;;;;;;54.75;22.38;;;2.90;99.90;;;;;;4967732;28;20060;-56
2021/01/09 11:06:59;;;;;;;47.25;21.48;;;2.90;99.90;;;;;;4979474;28;20034;-60
2021/01/09 11:09:26;;;;;;;50.17;22.08;;;2.90;99.90;;;;;;4983545;28;20034;-61
2021/01/09 11:11:52;;;;;;;52.40;20.95;;;2.90;99.90;;;;;;4985346;28;20133;-59
2021/01/09 11:14:17;;;;;;;49.17;21.83;;;2.80;99.90;;;;;;4982506;28;20560;-60
2021/01/09 11:16:43;;;;;;;47.78;21.00;;;2.80;99.90;;;;;;4984366;28;20030;-61
2021/01/09 11:19:10;;;;;;;46.03;21.35;;;2.80;99.90;;;;;;4984425;28;20026;-60
2021/01/09 11:21:37;;;;;;;51.65;22.25;;;2.90;99.90;;;;;;4981161;28;20077;-59
2021/01/09 11:24:03;;;;;;;51.30;22.08;;;2.90;99.90;;;;;;4987695;28;20030;-60
2021/01/09 11:26:29;;;;;;;51.88;21.42;;;2.90;99.90;;;;;;4986762;28;20129;-61
2021/01/09 11:28:55;;;;;;;44.42;21.05;;;3.00;99.90;;;;;;4986023;28;20149;-61
2021/01/09 11:31:21;;;;;;;45.88;20.30;;;3.10;99.90;;;;;;4987987;28;20026;-63
2021/01/09 11:33:47;;;;;;;43.10;20.08;;;3.20;99.90;;;;;;4988196;28;20042;-64
2021/01/09 11:36:14;;;;;;;47.50;20.80;;;3.20;99.90;;;;;;4983600;28;20049;-62
2021/01/09 11:38:40;;;;;;;43.90;20.27;;;3.10;99.90;;;;;;4988870;28;20034;-61
2021/01/09 11:41:06;;;;;;;45.83;21.40;;;3.10;99.90;;;;;;4988139;28;20542;-60
2021/01/09 11:43:33;;;;;;;62.10;25.52;;;3.10;99.90;;;;;;4987803;28;20030;-62
2021/01/09 11:45:58;;;;;;;56.35;21.63;;;3.20;99.90;;;;;;4984512;28;20022;-61
2021/01/09 11:48:24;;;;;;;48.72;21.58;;;3.30;99.90;;;;;;4991593;28;20022;-60
2021/01/09 11:50:50;;;;;;;47.88;20.67;;;3.40;99.90;;;;;;4990862;28;20495;-60
2021/01/09 11:53:16;;;;;;;50.10;20.17;;;3.40;99.90;;;;;;4984368;28;20042;-62
2021/01/09 11:55:42;;;;;;;41.25;19.15;;;3.50;99.90;;;;;;4988217;28;20034;-61
2021/01/09 11:58:08;;;;;;;48.72;21.75;;;3.60;99.90;;;;;;4976626;28;20030;-62
2021/01/09 12:00:34;;;;;;;45.50;20.17;;;3.60;99.90;;;;;;4986173;28;20031;-63
2021/01/09 12:02:59;;;;;;;44.38;21.58;;;3.70;99.90;;;;;;4968813;28;20455;-64
2021/01/09 12:05:25;;;;;;;41.28;20.02;;;3.70;99.90;;;;;;4987301;28;20041;-63
2021/01/09 12:07:51;;;;;;;37.33;16.92;;;3.80;99.90;;;;;;4987709;28;20523;-60
2021/01/09 12:10:16;;;;;;;36.08;19.92;;;3.80;99.90;;;;;;4986859;28;20077;-62
2021/01/09 12:12:42;;;;;;;37.70;18.42;;;3.90;99.90;;;;;;4979281;28;20034;-63
2021/01/09 12:15:09;;;;;;;36.78;17.70;;;3.80;99.90;;;;;;5003182;28;20053;-60
2021/01/09 12:17:35;;;;;;;43.53;20.95;;;3.80;99.90;;;;;;4992220;28;20133;-62
2021/01/09 12:20:01;;;;;;;36.88;18.88;;;3.90;99.90;;;;;;4985343;28;20844;-63
2021/01/09 12:22:26;;;;;;;35.65;18.17;;;3.80;99.90;;;;;;4974441;28;20665;-62
2021/01/09 12:24:52;;;;;;;36.60;19.08;;;3.80;99.90;;;;;;4984117;28;20042;-60
2021/01/09 12:27:18;;;;;;;35.45;18.23;;;3.80;99.90;;;;;;4974120;28;20385;-61
2021/01/09 12:29:44;;;;;;;37.20;18.85;;;3.70;99.90;;;;;;4985743;28;20039;-62
2021/01/09 12:32:10;;;;;;;41.65;20.55;;;3.70;99.90;;;;;;4985573;28;20058;-61
2021/01/09 12:34:35;;;;;;;36.63;18.88;;;3.70;99.90;;;;;;4984059;28;20085;-62
2021/01/09 12:37:01;;;;;;;53.25;24.48;;;3.60;99.90;;;;;;4984936;28;20015;-62
2021/01/09 12:39:26;;;;;;;45.72;22.55;;;3.60;99.90;;;;;;4985763;28;20495;-61